Time;durP1;ratioP1;P1;durP2;ratioP2;P2;SDS_P1;SDS_P2;PMS_P1;PMS_P2;Temp;Humidity;BMP_temperature;BMP_pressure;BME280_temperature;BME280_humidity;BME280_pressure;Samples;Min_cycle;Max_cycle;Signal;HPM_P1;HPM_P2
2023/03/21 00:01:15;;;;;;;109.07;39.28;;;9.50;99.90;;;;;;5062058;28;20093;-70
2023/03/21 00:03:45;;;;;;;120.93;41.30;;;9.50;99.90;;;;;;5061446;28;20052;-70
2023/03/21 00:06:14;;;;;;;108.18;40.90;;;9.60;99.90;;;;;;5046779;28;20044;-71
2023/03/21 00:08:40;;;;;;;116.60;41.05;;;9.50;99.90;;;;;;5066679;28;20101;-70
2023/03/21 00:11:08;;;;;;;104.38;40.80;;;9.50;99.90;;;;;;5017953;28;20696;-70
2023/03/21 00:13:37;;;;;;;94.57;40.25;;;9.50;99.90;;;;;;5061964;28;20174;-70
2023/03/21 00:16:17;;;;;;;102.47;41.33;;;9.50;99.90;;;;;;5045333;28;20040;-70
2023/03/21 00:18:51;;;;;;;92.20;40.92;;;9.50;99.90;;;;;;5044262;28;20138;-70
2023/03/21 00:21:27;;;;;;;107.28;42.53;;;9.50;99.90;;;;;;5044358;28;20032;-70
2023/03/21 00:23:56;;;;;;;80.43;40.38;;;9.50;99.90;;;;;;5047855;28;20182;-70
2023/03/21 00:26:22;;;;;;;94.63;42.85;;;9.50;99.90;;;;;;5044249;28;20052;-70
2023/03/21 00:28:51;;;;;;;115.70;48.17;;;9.60;99.90;;;;;;5048262;28;20055;-71
2023/03/21 00:31:17;;;;;;;112.35;45.20;;;9.50;99.90;;;;;;5049413;28;20504;-72
2023/03/21 00:33:43;;;;;;;98.35;44.78;;;9.50;99.90;;;;;;5048264;28;20170;-72
2023/03/21 00:36:11;;;;;;;81.10;43.60;;;9.50;99.90;;;;;;5058574;28;20391;-72
2023/03/21 00:38:37;;;;;;;84.43;44.17;;;9.50;99.90;;;;;;5040983;28;20105;-72
2023/03/21 00:41:05;;;;;;;88.93;43.90;;;9.50;99.90;;;;;;5053502;28;20043;-72
2023/03/21 00:43:31;;;;;;;70.25;40.42;;;9.50;99.90;;;;;;5052785;28;20521;-72
2023/03/21 00:45:58;;;;;;;67.10;39.50;;;9.50;99.90;;;;;;5044868;28;20052;-72
2023/03/21 00:48:24;;;;;;;90.90;43.75;;;9.60;99.90;;;;;;5062033;28;20044;-70
2023/03/21 00:50:53;;;;;;;79.22;41.95;;;9.50;99.90;;;;;;5059818;28;20459;-70
2023/03/21 00:53:19;;;;;;;73.68;42.17;;;9.50;99.90;;;;;;5031920;28;20032;-70
2023/03/21 00:55:46;;;;;;;78.10;43.20;;;9.60;99.90;;;;;;5057043;28;20044;-70
2023/03/21 00:58:12;;;;;;;88.40;43.30;;;9.50;99.90;;;;;;5043848;28;20110;-70
2023/03/21 01:00:38;;;;;;;87.00;41.47;;;9.50;99.90;;;;;;5046019;28;20538;-70
2023/03/21 01:03:06;;;;;;;79.68;43.33;;;9.50;99.90;;;;;;5063267;28;20071;-70
2023/03/21 01:06:03;;;;;;;70.75;39.30;;;9.50;99.90;;;;;;5060781;28;20131;-70
2023/03/21 01:08:34;;;;;;;66.88;37.90;;;9.60;99.90;;;;;;5063470;28;20040;-70
2023/03/21 01:11:11;;;;;;;86.43;41.30;;;9.50;99.90;;;;;;5061843;28;20046;-70
2023/03/21 01:13:37;;;;;;;78.45;39.10;;;9.50;99.90;;;;;;5036445;28;20132;-70
2023/03/21 01:16:05;;;;;;;80.20;38.92;;;9.60;99.90;;;;;;5058868;28;20123;-73
2023/03/21 01:18:32;;;;;;;83.65;38.50;;;9.50;99.90;;;;;;5060406;28;20482;-70
2023/03/21 01:20:59;;;;;;;69.70;37.13;;;9.60;99.90;;;;;;5058040;28;20036;-72
2023/03/21 01:23:27;;;;;;;68.40;35.10;;;9.60;99.90;;;;;;5065401;28;20055;-70
2023/03/21 01:25:54;;;;;;;63.50;33.88;;;9.60;99.90;;;;;;5059207;28;20464;-70
2023/03/21 01:28:20;;;;;;;59.80;32.17;;;9.60;99.90;;;;;;5068849;28;20133;-72
2023/03/21 01:30:48;;;;;;;62.63;32.38;;;9.50;99.90;;;;;;5061624;28;20584;-70
2023/03/21 01:33:15;;;;;;;66.63;34.42;;;9.60;99.90;;;;;;5061813;28;20032;-70
2023/03/21 01:35:41;;;;;;;58.97;33.90;;;9.60;99.90;;;;;;5061637;28;20127;-70
2023/03/21 01:38:10;;;;;;;60.97;33.17;;;9.60;99.90;;;;;;5065892;28;20398;-70
2023/03/21 01:40:37;;;;;;;64.03;33.25;;;9.60;99.90;;;;;;5047315;28;20062;-70
2023/03/21 01:43:09;;;;;;;59.90;32.05;;;9.60;99.90;;;;;;5062295;28;20409;-70
2023/03/21 01:46:20;;;;;;;62.28;33.45;;;9.60;99.90;;;;;;5054915;28;20055;-70
2023/03/21 01:48:56;;;;;;;76.85;36.17;;;9.60;99.90;;;;;;5052422;28;20506;-70
2023/03/21 01:51:24;;;;;;;78.00;37.35;;;9.60;99.90;;;;;;5060169;28;20174;-70
2023/03/21 01:53:50;;;;;;;64.95;34.85;;;9.60;99.90;;;;;;5028304;28;20053;-70
2023/03/21 01:56:31;;;;;;;76.93;36.30;;;9.60;99.90;;;;;;5043680;28;20040;-70
2023/03/21 01:59:22;;;;;;;63.15;33.90;;;9.60;99.90;;;;;;5049119;28;20058;-70
2023/03/21 02:01:50;;;;;;;62.92;33.83;;;9.60;99.90;;;;;;5064329;28;20126;-69
2023/03/21 02:04:20;;;;;;;54.78;33.15;;;9.60;99.90;;;;;;5042683;28;20032;-69
2023/03/21 02:07:02;;;;;;;57.03;32.78;;;9.60;99.90;;;;;;5046380;28;20398;-70
2023/03/21 02:09:32;;;;;;;65.97;35.38;;;9.60;99.90;;;;;;5055589;28;20048;-70
2023/03/21 02:12:00;;;;;;;54.13;33.15;;;9.60;99.90;;;;;;5046355;28;20139;-70
2023/03/21 02:14:26;;;;;;;57.65;33.05;;;9.60;99.90;;;;;;5053498;28;20479;-72
2023/03/21 02:17:15;;;;;;;57.33;33.15;;;9.60;99.90;;;;;;5079390;28;20051;-72
2023/03/21 02:19:46;;;;;;;56.35;32.72;;;9.60;99.90;;;;;;5057737;28;20049;-72
2023/03/21 02:22:37;;;;;;;80.97;36.90;;;9.60;99.90;;;;;;5056082;28;20036;-73
2023/03/21 02:25:31;;;;;;;71.38;35.70;;;9.60;99.90;;;;;;5058809;28;20056;-71
2023/03/21 02:28:06;;;;;;;74.82;35.65;;;9.60;99.90;;;;;;5049107;28;20043;-70
2023/03/21 02:30:37;;;;;;;64.60;35.28;;;9.60;99.90;;;;;;5045836;28;20047;-70
2023/03/21 02:33:21;;;;;;;75.68;37.17;;;9.60;99.90;;;;;;5059067;28;20085;-70
2023/03/21 02:35:53;;;;;;;70.03;36.58;;;9.60;99.90;;;;;;5059755;28;20048;-70
2023/03/21 02:38:51;;;;;;;69.03;35.80;;;9.50;99.90;;;;;;5054295;28;20421;-70
2023/03/21 02:41:36;;;;;;;59.60;33.20;;;9.60;99.90;;;;;;5062138;28;20055;-70
2023/03/21 02:44:32;;;;;;;59.88;32.97;;;9.60;99.90;;;;;;5066296;28;20093;-71
2023/03/21 02:47:23;;;;;;;61.47;33.70;;;9.50;99.90;;;;;;5048971;28;20044;-70
2023/03/21 02:49:54;;;;;;;;;;;9.60;99.90;;;;;;5059464;28;20498;-72
2023/03/21 02:52:28;;;;;;;59.45;33.72;;;9.50;99.90;;;;;;5060586;28;19938;-72
2023/03/21 02:54:55;;;;;;;62.42;32.85;;;9.50;99.90;;;;;;5045566;28;20071;-73
2023/03/21 02:57:21;;;;;;;58.63;32.50;;;9.50;99.90;;;;;;5047468;28;20432;-73
2023/03/21 02:59:51;;;;;;;62.58;33.85;;;9.50;99.90;;;;;;5055292;28;20050;-73
2023/03/21 03:02:20;;;;;;;;;;;9.50;99.90;;;;;;5045994;28;20097;-72
2023/03/21 03:04:46;;;;;;;72.40;35.85;;;9.50;99.90;;;;;;5062139;28;20307;-73
2023/03/21 03:07:34;;;;;;;95.53;40.22;;;9.50;99.90;;;;;;5030831;28;20113;-72
2023/03/21 03:10:06;;;;;;;89.15;40.35;;;9.50;99.90;;;;;;5048478;28;20457;-73
2023/03/21 03:12:34;;;;;;;69.20;37.53;;;9.50;99.90;;;;;;5046888;28;20105;-72
2023/03/21 03:15:04;;;;;;;66.45;35.65;;;9.50;99.90;;;;;;5048181;28;20044;-71
2023/03/21 03:17:50;;;;;;;77.03;37.00;;;9.50;99.90;;;;;;5058476;28;20821;-70
2023/03/21 03:20:37;;;;;;;69.88;35.53;;;9.50;99.90;;;;;;5061147;28;20043;-71
2023/03/21 03:23:22;;;;;;;95.30;37.95;;;9.50;99.90;;;;;;5060640;28;20055;-71
2023/03/21 03:26:33;;;;;;;73.75;34.33;;;9.60;99.90;;;;;;5056817;28;20048;-70
2023/03/21 03:29:05;;;;;;;63.58;32.13;;;9.60;99.90;;;;;;5035349;28;20916;-70
2023/03/21 03:31:40;;;;;;;64.80;32.00;;;9.60;99.90;;;;;;5040192;28;20143;-70
2023/03/21 03:34:14;;;;;;;62.70;30.58;;;9.60;99.90;;;;;;5052602;28;20052;-71
2023/03/21 03:36:46;;;;;;;50.35;27.55;;;9.60;99.90;;;;;;5059095;28;20071;-71
2023/03/21 03:39:14;;;;;;;61.70;29.23;;;9.60;99.90;;;;;;5033851;28;20051;-73
2023/03/21 03:41:57;;;;;;;54.35;26.83;;;9.60;99.90;;;;;;5044836;28;20048;-72
2023/03/21 03:44:24;;;;;;;62.70;27.42;;;9.60;99.90;;;;;;5057894;28;20059;-72
2023/03/21 03:47:16;;;;;;;58.85;27.08;;;9.60;99.90;;;;;;5061798;28;20056;-73
2023/03/21 03:49:56;;;;;;;41.72;23.20;;;9.50;99.90;;;;;;5079865;28;20299;-73
2023/03/21 03:52:28;;;;;;;57.90;26.05;;;9.50;99.90;;;;;;5064240;28;20502;-73
2023/03/21 03:54:54;;;;;;;54.75;25.48;;;9.50;99.90;;;;;;5063910;28;20047;-73
2023/03/21 03:57:21;;;;;;;41.63;23.60;;;9.60;99.90;;;;;;5061721;28;20094;-73
2023/03/21 03:59:47;;;;;;;53.65;24.92;;;9.60;99.90;;;;;;5047148;28;20084;-73
2023/03/21 04:02:14;;;;;;;42.35;22.88;;;9.60;99.90;;;;;;5045885;28;20430;-73
2023/03/21 04:04:40;;;;;;;58.03;27.02;;;9.60;99.90;;;;;;5056727;28;20056;-73
2023/03/21 04:07:06;;;;;;;57.20;26.38;;;9.50;99.90;;;;;;5059257;28;20067;-73
2023/03/21 04:09:32;;;;;;;44.63;25.00;;;9.50;99.90;;;;;;5061173;28;20051;-73
2023/03/21 04:11:58;;;;;;;61.13;26.83;;;9.60;99.90;;;;;;5054396;28;20048;-73
2023/03/21 04:14:24;;;;;;;43.95;25.02;;;9.60;99.90;;;;;;5058496;28;20085;-73
2023/03/21 04:16:51;;;;;;;66.82;28.20;;;9.50;99.90;;;;;;5050058;28;20051;-73
2023/03/21 04:19:17;;;;;;;40.35;24.98;;;9.50;99.90;;;;;;5063197;28;20056;-73
2023/03/21 04:21:45;;;;;;;46.78;26.05;;;9.50;99.90;;;;;;5045432;28;20467;-73
2023/03/21 04:24:12;;;;;;;52.60;26.52;;;9.50;99.90;;;;;;5063743;28;20498;-73
2023/03/21 04:26:38;;;;;;;56.25;27.05;;;9.50;99.90;;;;;;5058322;28;20051;-73
2023/03/21 04:29:04;;;;;;;40.47;23.92;;;9.60;99.90;;;;;;5044790;28;20063;-73
2023/03/21 04:31:34;;;;;;;58.90;27.75;;;9.50;99.90;;;;;;5043071;28;20066;-73
2023/03/21 04:34:08;;;;;;;;;;;9.50;99.90;;;;;;5043432;28;20083;-73
2023/03/21 04:36:43;;;;;;;58.00;27.52;;;9.50;99.90;;;;;;5061310;28;20320;-73
2023/03/21 04:39:15;;;;;;;59.40;28.80;;;9.50;99.90;;;;;;5066347;28;20055;-73
2023/03/21 04:41:43;;;;;;;65.53;30.05;;;9.50;99.90;;;;;;5044082;28;20631;-73
2023/03/21 04:44:10;;;;;;;45.97;27.67;;;9.50;99.90;;;;;;5061234;28;20089;-72
2023/03/21 04:46:37;;;;;;;52.65;28.55;;;9.50;99.90;;;;;;5060803;28;20056;-73
2023/03/21 04:49:03;;;;;;;49.20;29.80;;;9.50;99.90;;;;;;5041259;28;20171;-72
2023/03/21 04:51:33;;;;;;;55.88;32.42;;;9.50;99.90;;;;;;5045141;28;20040;-73
2023/03/21 04:54:05;;;;;;;57.20;32.30;;;9.50;99.90;;;;;;5064736;28;20062;-72
2023/03/21 04:56:32;;;;;;;65.50;34.22;;;9.50;99.90;;;;;;5044005;28;20082;-72
2023/03/21 04:59:06;;;;;;;60.25;34.22;;;9.50;99.90;;;;;;5047135;28;20056;-72
2023/03/21 05:01:32;;;;;;;69.50;34.63;;;9.50;99.90;;;;;;5037689;28;20044;-72
2023/03/21 05:04:03;;;;;;;66.70;36.47;;;9.50;99.90;;;;;;5052915;28;20478;-73
2023/03/21 05:06:28;;;;;;;;;;;9.50;99.90;;;;;;5051407;28;20490;-72
2023/03/21 05:09:04;;;;;;;85.80;38.83;;;9.50;99.90;;;;;;5047272;28;19924;-72
2023/03/21 05:11:36;;;;;;;65.05;36.33;;;9.50;99.90;;;;;;5059157;28;20040;-72
2023/03/21 05:14:07;;;;;;;58.33;36.00;;;9.50;99.90;;;;;;5062462;28;20105;-72
2023/03/21 05:16:35;;;;;;;53.17;34.83;;;9.50;99.90;;;;;;5063888;28;20051;-72
2023/03/21 05:19:04;;;;;;;60.97;36.28;;;9.50;99.90;;;;;;5056543;28;20039;-72
2023/03/21 05:21:40;;;;;;;57.90;35.95;;;9.50;99.90;;;;;;5057049;28;20044;-72
2023/03/21 05:24:12;;;;;;;50.30;34.38;;;9.50;99.90;;;;;;5057859;28;20123;-72
2023/03/21 05:26:39;;;;;;;70.30;40.13;;;9.50;99.90;;;;;;5048741;28;20083;-72
2023/03/21 05:29:05;;;;;;;63.10;37.80;;;9.50;99.90;;;;;;5061601;28;20506;-73
2023/03/21 05:31:31;;;;;;;62.35;36.75;;;9.50;99.90;;;;;;5049315;28;20054;-73
2023/03/21 05:33:57;;;;;;;55.08;37.15;;;9.50;99.90;;;;;;5052884;28;20056;-72
2023/03/21 05:36:23;;;;;;;62.78;37.65;;;9.50;99.90;;;;;;5028771;28;20498;-73
2023/03/21 05:38:52;;;;;;;103.72;44.03;;;9.50;99.90;;;;;;5059893;28;20044;-73
2023/03/21 05:41:20;;;;;;;58.00;37.27;;;9.50;99.90;;;;;;5031103;28;20048;-72
2023/03/21 05:43:46;;;;;;;55.00;35.90;;;9.50;99.90;;;;;;5064464;28;20290;-73
2023/03/21 05:46:12;;;;;;;53.38;36.38;;;9.50;99.90;;;;;;5045172;28;20044;-73
2023/03/21 05:48:38;;;;;;;50.80;35.15;;;9.50;99.90;;;;;;5052686;28;20040;-73
2023/03/21 05:51:04;;;;;;;55.10;36.83;;;9.50;99.90;;;;;;5060372;28;20505;-73
2023/03/21 05:53:30;;;;;;;52.15;36.03;;;9.50;99.90;;;;;;5050399;28;20413;-73
2023/03/21 05:55:56;;;;;;;53.53;34.67;;;9.50;99.90;;;;;;5046896;28;20044;-73
2023/03/21 05:58:22;;;;;;;47.53;34.55;;;9.50;99.90;;;;;;5066643;28;20431;-73
2023/03/21 06:00:48;;;;;;;54.30;37.67;;;9.50;99.90;;;;;;5045306;28;20033;-73
2023/03/21 06:03:14;;;;;;;56.08;36.70;;;9.50;99.90;;;;;;5059879;28;20043;-73
2023/03/21 06:05:39;;;;;;;52.38;35.67;;;9.50;99.90;;;;;;5024912;28;20418;-73
2023/03/21 06:08:08;;;;;;;50.97;36.20;;;9.50;99.90;;;;;;5045006;28;20036;-73
2023/03/21 06:10:34;;;;;;;55.75;37.53;;;9.50;99.90;;;;;;5059773;28;20040;-73
2023/03/21 06:13:00;;;;;;;60.05;37.55;;;9.50;99.90;;;;;;5052549;28;21120;-71
2023/03/21 06:15:26;;;;;;;57.10;37.25;;;9.50;99.90;;;;;;5042943;28;20069;-71
2023/03/21 06:17:52;;;;;;;57.13;38.17;;;9.50;99.90;;;;;;5042341;28;20053;-71
2023/03/21 06:20:18;;;;;;;61.35;38.00;;;9.50;99.90;;;;;;5043623;28;20529;-72
2023/03/21 06:22:43;;;;;;;60.20;38.58;;;9.50;99.90;;;;;;5025227;28;20525;-71
2023/03/21 06:25:10;;;;;;;56.50;36.85;;;9.50;99.90;;;;;;5040064;28;20041;-71
2023/03/21 06:27:36;;;;;;;66.43;38.92;;;9.50;99.90;;;;;;5047954;28;20108;-71
2023/03/21 06:30:03;;;;;;;50.83;35.80;;;9.50;99.90;;;;;;5042223;28;20050;-71
2023/03/21 06:32:32;;;;;;;84.28;42.80;;;9.50;99.90;;;;;;5021159;28;20526;-72
2023/03/21 06:34:58;;;;;;;63.20;39.78;;;9.50;99.90;;;;;;5060740;28;20056;-72
2023/03/21 06:37:25;;;;;;;65.22;40.42;;;9.50;99.90;;;;;;5045023;28;20037;-72
2023/03/21 06:39:51;;;;;;;55.70;36.38;;;9.50;99.90;;;;;;5061561;28;20082;-72
2023/03/21 06:42:17;;;;;;;81.60;43.70;;;9.50;99.90;;;;;;5044046;28;20047;-72
2023/03/21 06:44:42;;;;;;;77.20;43.42;;;9.60;99.90;;;;;;5009683;28;20036;-73
2023/03/21 06:47:08;;;;;;;62.35;39.53;;;9.60;99.90;;;;;;5042454;28;20066;-73
2023/03/21 06:49:34;;;;;;;64.63;40.22;;;9.60;99.90;;;;;;5037814;28;20036;-72
2023/03/21 06:52:03;;;;;;;52.95;36.97;;;9.60;99.90;;;;;;5027403;28;20048;-73
2023/03/21 06:54:28;;;;;;;55.28;36.38;;;9.60;99.90;;;;;;5059060;28;20078;-72
2023/03/21 06:56:55;;;;;;;61.63;37.30;;;9.60;99.90;;;;;;5062835;28;20071;-73
2023/03/21 06:59:21;;;;;;;48.65;33.80;;;9.60;99.90;;;;;;5054911;28;20527;-74
2023/03/21 07:01:47;;;;;;;53.90;35.28;;;9.60;99.90;;;;;;5041555;28;20044;-74
2023/03/21 07:04:13;;;;;;;46.70;31.90;;;9.60;99.90;;;;;;5010461;28;20096;-74
2023/03/21 07:06:39;;;;;;;33.65;25.77;;;9.60;99.90;;;;;;5043610;28;20131;-74
2023/03/21 07:09:05;;;;;;;37.05;25.83;;;9.60;99.90;;;;;;5057791;28;20044;-74
2023/03/21 07:11:35;;;;;;;35.92;25.75;;;9.60;99.90;;;;;;5051920;28;20044;-73
2023/03/21 07:14:01;;;;;;;37.85;26.50;;;9.60;99.90;;;;;;5058639;28;20506;-74
2023/03/21 07:16:27;;;;;;;32.50;23.25;;;9.60;99.90;;;;;;5042919;28;20033;-74
2023/03/21 07:18:53;;;;;;;32.33;23.00;;;9.60;99.90;;;;;;5065172;28;20043;-74
2023/03/21 07:21:19;;;;;;;28.08;21.58;;;9.70;99.90;;;;;;5046654;28;20078;-74
2023/03/21 07:23:45;;;;;;;28.65;21.48;;;9.70;99.90;;;;;;5032830;28;20044;-74
2023/03/21 07:26:11;;;;;;;29.98;22.05;;;9.70;99.90;;;;;;5063326;28;20037;-74
2023/03/21 07:28:37;;;;;;;30.67;22.15;;;9.70;99.90;;;;;;5041269;28;20053;-74
2023/03/21 07:31:05;;;;;;;30.08;24.40;;;9.70;99.90;;;;;;5012556;28;20045;-74
2023/03/21 07:33:32;;;;;;;34.60;25.67;;;9.70;99.90;;;;;;5060704;28;20049;-74
2023/03/21 07:35:59;;;;;;;30.20;25.15;;;9.70;99.90;;;;;;5051870;28;20036;-74
2023/03/21 07:38:26;;;;;;;29.38;25.05;;;9.60;99.90;;;;;;5047111;28;20040;-74
2023/03/21 07:40:52;;;;;;;33.95;27.05;;;9.60;99.90;;;;;;5050072;28;20040;-74
2023/03/21 07:43:19;;;;;;;30.75;25.60;;;9.60;99.90;;;;;;5066114;28;20245;-74
2023/03/21 07:45:45;;;;;;;30.75;25.92;;;9.60;99.90;;;;;;5065744;28;21142;-74
2023/03/21 07:48:12;;;;;;;34.42;27.27;;;9.60;99.90;;;;;;5051873;28;20044;-74
2023/03/21 07:50:41;;;;;;;35.15;28.80;;;9.60;99.90;;;;;;5030790;28;20040;-73
2023/03/21 07:53:07;;;;;;;34.28;27.77;;;9.70;99.90;;;;;;5067641;28;20047;-73
2023/03/21 07:55:33;;;;;;;40.53;31.05;;;9.70;99.90;;;;;;5049668;28;20040;-74
2023/03/21 07:58:03;;;;;;;38.03;30.48;;;9.70;99.90;;;;;;5062319;28;20051;-75
2023/03/21 08:00:32;;;;;;;34.40;28.85;;;9.70;99.90;;;;;;5062978;28;20040;-74
2023/03/21 08:02:59;;;;;;;38.22;31.15;;;9.60;99.90;;;;;;5064524;28;20135;-73
2023/03/21 08:05:33;;;;;;;34.15;28.38;;;9.70;99.90;;;;;;5050219;28;20032;-73
2023/03/21 08:08:02;;;;;;;35.95;29.00;;;9.70;99.90;;;;;;5050708;28;20426;-74
2023/03/21 08:10:31;;;;;;;34.55;27.95;;;9.70;99.90;;;;;;5065160;28;20105;-74
2023/03/21 08:13:00;;;;;;;32.42;27.42;;;9.70;99.90;;;;;;5066838;28;20048;-74
2023/03/21 08:15:26;;;;;;;30.70;26.65;;;9.70;99.90;;;;;;5048350;28;20036;-73
2023/03/21 08:17:52;;;;;;;31.08;26.55;;;9.80;99.90;;;;;;5052148;28;20047;-74
2023/03/21 08:20:20;;;;;;;29.58;25.92;;;9.80;99.90;;;;;;5043452;28;20470;-74
2023/03/21 08:22:47;;;;;;;33.65;28.10;;;9.70;99.90;;;;;;5068795;28;20052;-74
2023/03/21 08:25:18;;;;;;;32.20;25.98;;;9.70;99.90;;;;;;5062344;28;20048;-74
2023/03/21 08:27:45;;;;;;;30.23;25.42;;;9.70;99.90;;;;;;5051075;28;20053;-75
2023/03/21 08:30:13;;;;;;;32.03;27.65;;;9.70;99.90;;;;;;5061726;28;20048;-75
2023/03/21 08:32:41;;;;;;;30.90;26.48;;;9.80;99.90;;;;;;5053774;28;20046;-75
2023/03/21 08:35:09;;;;;;;32.67;26.58;;;9.80;99.90;;;;;;5046387;28;20506;-75
2023/03/21 08:37:37;;;;;;;26.70;23.80;;;9.80;99.90;;;;;;5061712;28;20074;-75
2023/03/21 08:40:07;;;;;;;28.90;25.25;;;9.90;99.90;;;;;;5046088;28;20052;-75
2023/03/21 08:42:33;;;;;;;;;;;9.80;99.90;;;;;;5044571;28;20032;-75
2023/03/21 08:44:59;;;;;;;28.75;24.88;;;9.90;99.90;;;;;;5046798;28;19928;-76
2023/03/21 08:47:27;;;;;;;29.92;24.88;;;9.80;99.90;;;;;;5040576;28;20128;-75
2023/03/21 08:49:53;;;;;;;31.98;26.63;;;9.90;99.90;;;;;;5062898;28;20122;-75
2023/03/21 08:52:19;;;;;;;28.80;25.35;;;9.90;99.90;;;;;;5047537;28;20568;-76
2023/03/21 08:54:45;;;;;;;30.33;26.50;;;9.90;99.90;;;;;;5031646;28;20123;-75
2023/03/21 08:57:10;;;;;;;34.20;28.20;;;9.90;99.90;;;;;;5034245;28;20043;-75
2023/03/21 08:59:37;;;;;;;32.42;27.25;;;9.90;99.90;;;;;;5063244;28;20130;-76
2023/03/21 09:02:03;;;;;;;29.90;26.05;;;9.90;99.90;;;;;;5032725;28;20089;-75
2023/03/21 09:04:29;;;;;;;32.83;27.45;;;9.90;99.90;;;;;;5047529;28;20040;-75
2023/03/21 09:06:56;;;;;;;36.60;29.33;;;9.90;99.90;;;;;;5065257;28;20048;-73
2023/03/21 09:09:22;;;;;;;35.65;28.80;;;9.90;99.90;;;;;;5063628;28;20123;-74
2023/03/21 09:11:47;;;;;;;38.95;30.35;;;9.90;99.90;;;;;;5045897;28;20189;-74
2023/03/21 09:14:13;;;;;;;34.55;28.92;;;9.90;99.90;;;;;;5045739;28;20101;-73
2023/03/21 09:16:40;;;;;;;39.08;32.25;;;9.90;99.90;;;;;;5046356;28;20051;-73
2023/03/21 09:19:07;;;;;;;36.47;32.42;;;9.90;99.90;;;;;;5044029;28;20043;-73
2023/03/21 09:21:34;;;;;;;41.60;32.75;;;9.90;99.90;;;;;;5029016;28;20055;-73
2023/03/21 09:24:05;;;;;;;42.53;33.83;;;9.80;99.90;;;;;;5063430;28;20109;-73
2023/03/21 09:26:31;;;;;;;41.00;32.78;;;9.80;99.90;;;;;;5047085;28;20077;-73
2023/03/21 09:28:57;;;;;;;41.45;33.38;;;9.80;99.90;;;;;;5046730;28;20132;-73
2023/03/21 09:31:24;;;;;;;39.60;32.22;;;9.80;99.90;;;;;;5044263;28;20044;-73
2023/03/21 09:33:56;;;;;;;40.72;33.92;;;9.80;99.90;;;;;;5027597;28;20458;-74
2023/03/21 09:36:26;;;;;;;40.30;34.03;;;9.80;99.90;;;;;;5046712;28;20044;-74
2023/03/21 09:38:53;;;;;;;45.50;34.35;;;9.80;99.90;;;;;;5059966;28;20040;-74
2023/03/21 09:42:10;;;;;;;42.20;32.78;;;9.80;99.90;;;;;;5035267;28;20714;-73
2023/03/21 09:44:51;;;;;;;42.22;34.10;;;9.80;99.90;;;;;;4948176;28;20141;-73
2023/03/21 09:47:20;;;;;;;43.20;33.13;;;9.80;99.90;;;;;;4954969;28;20525;-74
2023/03/21 09:49:53;;;;;;;40.78;31.52;;;9.80;99.90;;;;;;5019605;28;20109;-74
2023/03/21 09:52:31;;;;;;;43.88;34.45;;;9.80;99.90;;;;;;5058634;28;20780;-73
2023/03/21 09:54:57;;;;;;;40.60;32.88;;;9.80;99.90;;;;;;5064289;28;20103;-73
2023/03/21 09:57:41;;;;;;;42.00;32.28;;;9.80;99.90;;;;;;5038762;28;20055;-73
2023/03/21 10:00:19;;;;;;;41.60;34.50;;;9.80;99.90;;;;;;5057461;28;20509;-73
2023/03/21 10:02:52;;;;;;;42.22;34.15;;;9.80;99.90;;;;;;5047007;28;20040;-73
2023/03/21 10:05:24;;;;;;;39.67;32.63;;;9.80;99.90;;;;;;5061194;28;20131;-73
2023/03/21 10:08:35;;;;;;;43.60;32.53;;;9.80;99.90;;;;;;5043135;28;20298;-73
2023/03/21 10:11:21;;;;;;;40.03;31.55;;;9.80;99.90;;;;;;5038111;28;20099;-73
2023/03/21 10:14:03;;;;;;;37.67;29.38;;;9.80;99.90;;;;;;5041826;28;20040;-73
2023/03/21 10:16:36;;;;;;;45.63;32.22;;;9.80;99.90;;;;;;5058822;28;20059;-74
2023/03/21 10:19:10;;;;;;;38.00;30.10;;;9.80;99.90;;;;;;5042668;28;20427;-73
2023/03/21 10:21:42;;;;;;;36.75;29.20;;;9.80;99.90;;;;;;5057343;28;20040;-74
2023/03/21 10:24:12;;;;;;;35.80;28.08;;;9.80;99.90;;;;;;5056907;28;20402;-73
2023/03/21 10:26:38;;;;;;;36.33;29.50;;;9.90;99.90;;;;;;5055403;28;20184;-74
2023/03/21 10:29:04;;;;;;;36.35;29.35;;;9.90;99.90;;;;;;5029878;28;20052;-73
2023/03/21 10:31:31;;;;;;;37.67;28.48;;;9.90;99.90;;;;;;5060569;28;20040;-74
2023/03/21 10:34:05;;;;;;;35.15;27.45;;;9.90;99.90;;;;;;5043846;28;20486;-74
2023/03/21 10:36:34;;;;;;;35.03;29.10;;;9.90;99.90;;;;;;5040733;28;20048;-73
2023/03/21 10:39:23;;;;;;;35.20;28.25;;;9.90;99.90;;;;;;5056966;28;20048;-73
2023/03/21 10:41:49;;;;;;;34.53;28.80;;;10.00;99.90;;;;;;5048052;28;20055;-73
2023/03/21 10:44:19;;;;;;;36.88;29.48;;;10.00;99.90;;;;;;5013216;28;21119;-74
2023/03/21 10:46:49;;;;;;;;;;;10.10;99.90;;;;;;5063320;28;20494;-74
2023/03/21 10:49:20;;;;;;;33.20;27.17;;;10.10;99.90;;;;;;5043462;28;20053;-74
2023/03/21 10:51:48;;;;;;;;;;;10.10;99.90;;;;;;5048807;28;20036;-74
2023/03/21 10:54:19;;;;;;;35.25;27.42;;;10.10;99.90;;;;;;5056432;28;19927;-75
2023/03/21 10:57:10;;;;;;;;;;;10.20;99.90;;;;;;5052006;28;20515;-75
2023/03/21 10:59:46;;;;;;;33.95;27.23;;;10.20;99.90;;;;;;5054858;28;20333;-75
2023/03/21 11:02:30;;;;;;;31.80;26.80;;;10.30;99.90;;;;;;5045375;28;20044;-75
2023/03/21 11:05:02;;;;;;;36.88;27.90;;;10.40;99.90;;;;;;5047450;28;20509;-75
2023/03/21 11:07:30;;;;;;;34.40;27.08;;;10.50;99.90;;;;;;5060961;28;20106;-75
2023/03/21 11:10:11;;;;;;;34.45;25.30;;;10.50;99.90;;;;;;5050612;28;20044;-74
2023/03/21 11:12:46;;;;;;;34.33;26.23;;;10.60;99.90;;;;;;5065206;28;20069;-74
2023/03/21 11:15:48;;;;;;;31.00;25.00;;;10.70;99.90;;;;;;5061250;28;20047;-74
2023/03/21 11:18:25;;;;;;;26.80;23.75;;;10.80;99.90;;;;;;5019648;28;20044;-73
2023/03/21 11:20:57;;;;;;;28.95;24.10;;;10.80;99.90;;;;;;5065423;28;20089;-74
2023/03/21 11:23:30;;;;;;;28.63;23.08;;;10.90;99.90;;;;;;5063493;28;20599;-73
2023/03/21 11:25:59;;;;;;;25.70;22.77;;;11.00;99.90;;;;;;5050273;28;20048;-73
2023/03/21 11:28:40;;;;;;;24.90;19.95;;;11.00;99.90;;;;;;5050253;28;20036;-73
2023/03/21 11:31:08;;;;;;;28.95;22.48;;;11.10;99.90;;;;;;5045469;28;20036;-73
2023/03/21 11:33:58;;;;;;;21.25;18.15;;;11.10;99.90;;;;;;5047069;28;20056;-73
2023/03/21 11:36:37;;;;;;;22.17;18.55;;;11.10;99.90;;;;;;5059882;28;20063;-73
2023/03/21 11:39:29;;;;;;;22.38;19.13;;;11.10;99.90;;;;;;5045633;28;20044;-74
2023/03/21 11:41:55;;;;;;;21.45;18.00;;;11.10;99.90;;;;;;5037442;28;20048;-74
2023/03/21 11:44:33;;;;;;;21.55;18.05;;;11.10;99.90;;;;;;5055435;28;20452;-74
2023/03/21 11:47:02;;;;;;;20.10;17.73;;;11.20;99.90;;;;;;5066260;28;20044;-74
2023/03/21 11:49:29;;;;;;;20.33;17.65;;;11.20;99.90;;;;;;5059665;28;20052;-74
2023/03/21 11:52:35;;;;;;;19.50;16.85;;;11.20;99.90;;;;;;5061349;28;20468;-74
2023/03/21 11:55:28;;;;;;;18.88;15.70;;;11.20;99.90;;;;;;5019756;28;20359;-73
2023/03/21 11:58:00;;;;;;;17.80;15.95;;;11.30;99.90;;;;;;5050036;28;20354;-73
2023/03/21 12:00:53;;;;;;;21.65;15.90;;;11.30;99.90;;;;;;5060305;28;20548;-74
2023/03/21 12:04:06;;;;;;;19.52;15.68;;;11.30;99.90;;;;;;5049468;28;20055;-74
2023/03/21 12:06:41;;;;;;;19.83;15.02;;;11.30;99.90;;;;;;5029194;28;20047;-74
2023/03/21 12:09:35;;;;;;;18.00;15.20;;;11.30;99.90;;;;;;5045035;28;20098;-74
2023/03/21 12:12:22;;;;;;;16.98;14.05;;;11.40;99.90;;;;;;5064967;28;20435;-74
2023/03/21 12:14:48;;;;;;;16.42;13.57;;;11.40;99.90;;;;;;5065257;28;20044;-73
2023/03/21 12:17:35;;;;;;;17.67;14.18;;;11.50;99.90;;;;;;5063844;28;20415;-74
2023/03/21 12:20:16;;;;;;;15.30;12.85;;;11.60;99.90;;;;;;5063026;28;20056;-74
2023/03/21 12:23:01;;;;;;;17.55;12.73;;;11.70;99.90;;;;;;5046304;28;20099;-74
2023/03/21 12:26:02;;;;;;;15.40;12.60;;;11.70;99.90;;;;;;5063362;28;20051;-74
2023/03/21 12:29:01;;;;;;;18.00;12.85;;;11.60;99.90;;;;;;5050488;28;20701;-74
2023/03/21 12:31:43;;;;;;;14.85;12.55;;;11.60;99.90;;;;;;5064628;28;20138;-74
2023/03/21 12:34:18;;;;;;;17.42;12.70;;;11.60;99.90;;;;;;5061994;28;20536;-73
2023/03/21 12:37:03;;;;;;;17.05;12.35;;;11.50;99.90;;;;;;5047612;28;20048;-74
2023/03/21 12:39:38;;;;;;;17.60;13.63;;;11.50;99.90;;;;;;5045294;28;20123;-74
2023/03/21 12:42:46;;;;;;;15.60;12.73;;;11.50;99.90;;;;;;5054538;28;20040;-74
2023/03/21 12:45:17;;;;;;;17.60;13.40;;;11.50;99.90;;;;;;4962231;28;20038;-73
2023/03/21 12:47:48;;;;;;;19.42;12.88;;;11.40;99.90;;;;;;5032350;28;20088;-74
2023/03/21 12:50:21;;;;;;;15.45;12.40;;;11.40;99.90;;;;;;5062468;28;20043;-74
2023/03/21 12:53:03;;;;;;;17.25;12.40;;;11.40;99.90;;;;;;5058308;28;20127;-74
2023/03/21 12:55:32;;;;;;;18.85;13.40;;;11.40;99.90;;;;;;5064147;28;20047;-73
2023/03/21 12:58:03;;;;;;;20.73;13.25;;;11.40;99.90;;;;;;5057808;28;20072;-74
2023/03/21 13:00:54;;;;;;;17.80;12.80;;;11.40;99.90;;;;;;5039097;28;20394;-74
2023/03/21 13:03:23;;;;;;;;;;;11.40;99.90;;;;;;5049054;28;20223;-73